McChord Air Force Base
KTCM : rendu visible

Aérodrome :











RETROUVEZ-NOUS SUR...

 
LOGIN :

S'inscrire | Disclaimer

   EN    FR    IT 

 









Légende :    VFR   VFR Marginal   IFR   IFR Intensif   IFR Très Intensif
Visi : 
Plafond : 
>= 8 km
>= 3000ft
5 à 8 km
1000 à 3000 ft
1500m à 5 km
500 à 1000 ft
800 à 1500m
200 à 500 ft
< 800m
< 200 ft
Symboles :   Orages  Brouillard  Fortes neiges  Fortes précipitations  Vent > 20 kt






- Altitude de l'aérodrome : 322 ft


KTCM - McChord Air Force Base

DERNIER METAR :
  • 192358Z AUTO 36006KT 10SM SCT095 10/10 A3007 RMK AO2 SLP188 60002 T00980098 10111 20074 57030 $

METARs EXPIRÉS :
  • 192258Z AUTO 32006KT 10SM CLR 11/11 A3010 RMK AO2 SLP198 T01100110 $
  • 192158Z AUTO 33004KT 10SM OVC047 10/10 A3012 RMK AO2 SLP205 T01010101 $

TAF TAF KTCM
Valide du 19 à 21h jusqu'au 21 à 03h UTC


192100Z 1921/2103 VRB06KT 9999 VCSH OVC040 610709 QNH3007INS
BECMG 1923/1924 VRB06KT 9999 NSW SCT060 BKN150 QNH2996INS
BECMG 2011/2012 16006KT 9999 BKN030 BKN060 620609 QNH2978INS TX10/1922Z TN03/2012Z



MET'MAP, la Météo Aéronautique d'un coup d'oeil ! - Copyright ORBIFLY Décembre 2007 - Disclaimer

ORBIFLY MET'MAP TEAM :

Programmation & Développement : Alexandra Zaïnal
Sur une idée originale de : Baudouin d'Aumeries
Assistance à la programmation : Marc-Olivier Méhu
Soutien technique & logistique : Manuel Goepfert

Contact : metmap@orbifly.com




SOURCES & CREDITS :

   NOAA       Earth
Advisory